Time;durP1;ratioP1;P1;durP2;ratioP2;P2;SDS_P1;SDS_P2;PMS_P1;PMS_P2;Temp;Humidity;BMP_temperature;BMP_pressure;BME280_temperature;BME280_humidity;BME280_pressure;Samples;Min_cycle;Max_cycle;Signal;HPM_P1;HPM_P2
2023/05/18 00:00:22;;;;;;;;;5.67;5.33;;;;;14.99;47.76;102045.41;5013148;28;47235;-66
2023/05/18 00:02:48;;;;;;;;;5.75;5.75;;;;;14.95;47.74;102039.03;5012678;28;45093;-65
2023/05/18 00:05:16;;;;;;;;;4.25;4.25;;;;;14.94;47.76;102042.56;5013230;28;45095;-66
2023/05/18 00:07:42;;;;;;;;;4.25;4.00;;;;;14.92;47.56;102042.53;5013581;28;45046;-65
2023/05/18 00:10:08;;;;;;;;;8.25;6.50;;;;;14.86;47.89;102030.66;5012520;28;45852;-65
2023/05/18 00:12:33;;;;;;;;;4.67;4.00;;;;;14.84;47.73;102041.38;5011713;28;45533;-65
2023/05/18 00:14:59;;;;;;;;;3.75;3.75;;;;;14.78;47.99;102030.44;5012920;28;45051;-67
2023/05/18 00:17:24;;;;;;;;;5.75;4.50;;;;;14.76;47.94;102029.50;5011185;28;46036;-67
2023/05/18 00:19:50;;;;;;;;;7.00;5.67;;;;;14.77;48.24;102025.03;5013006;28;46091;-68
2023/05/18 00:22:19;;;;;;;;;5.33;3.33;;;;;14.76;48.22;102037.56;5013770;28;45282;-63
2023/05/18 00:24:45;;;;;;;;;8.00;6.67;;;;;14.37;47.97;101966.44;5010940;28;44927;-66
2023/05/18 00:27:11;;;;;;;;;7.33;5.00;;;;;14.70;48.13;102023.91;4991000;28;45313;-65
2023/05/18 00:29:36;;;;;;;;;4.00;2.00;;;;;14.69;48.47;102027.50;5011024;28;45616;-66
2023/05/18 00:32:01;;;;;;;;;5.00;5.00;;;;;14.65;48.33;102018.44;5012037;28;44926;-65
2023/05/18 00:34:26;;;;;;;;;5.67;5.00;;;;;14.63;48.32;102005.78;5012662;28;44997;-65
2023/05/18 00:36:52;;;;;;;;;3.00;3.00;;;;;14.69;48.51;102022.13;5012985;28;45125;-66
2023/05/18 00:39:17;;;;;;;;;6.00;6.00;;;;;14.70;48.54;102022.16;5012328;28;45202;-65
2023/05/18 00:41:43;;;;;;;;;8.00;6.00;;;;;14.68;48.59;102022.97;5011291;28;45092;-65
2023/05/18 00:44:09;;;;;;;;;4.67;3.67;;;;;14.68;48.73;102020.28;5012616;28;45157;-66
2023/05/18 00:46:35;;;;;;;;;4.00;4.00;;;;;14.61;48.63;102008.41;5012761;28;45035;-67
2023/05/18 00:49:01;;;;;;;;;6.25;6.25;;;;;14.62;48.81;102014.69;5009427;28;45198;-65
2023/05/18 00:51:27;;;;;;;;;4.00;4.00;;;;;14.58;48.97;102010.97;5009848;28;45544;-65
2023/05/18 00:53:54;;;;;;;;;6.67;4.00;;;;;14.58;49.08;102019.06;5012068;28;45027;-65
2023/05/18 00:56:22;;;;;;;;;6.67;4.00;;;;;14.52;48.86;102000.97;5012244;28;45149;-66
2023/05/18 00:58:50;;;;;;;;;6.00;5.00;;;;;14.59;49.06;102015.53;5012263;28;45038;-66
2023/05/18 01:01:18;;;;;;;;;5.00;5.00;;;;;14.52;49.09;102014.41;5012869;28;45038;-66
2023/05/18 01:03:43;;;;;;;;;6.75;5.75;;;;;14.48;49.30;102012.47;5010987;28;45429;-65
2023/05/18 01:06:09;;;;;;;;;5.67;5.67;;;;;14.49;49.55;102014.31;5012058;28;45020;-65
2023/05/18 01:08:36;;;;;;;;;4.67;4.00;;;;;14.41;49.43;102013.16;5012747;28;45863;-66
2023/05/18 01:11:17;;;;;;;;;4.25;4.25;;;;;14.44;49.42;102010.56;5013270;28;45025;-66
2023/05/18 01:14:12;;;;;;;;;8.50;5.00;;;;;14.44;49.66;102009.66;5012526;28;45058;-65
2023/05/18 01:16:49;;;;;;;;;9.25;5.75;;;;;14.40;49.85;102016.69;5012484;28;45015;-66
2023/05/18 01:19:34;;;;;;;;;5.75;5.75;;;;;14.35;49.89;102019.28;5012365;28;45262;-66
2023/05/18 01:22:25;;;;;;;;;4.00;4.00;;;;;14.35;49.89;102021.97;5011362;28;44979;-64
2023/05/18 01:24:56;;;;;;;;;6.33;4.00;;;;;14.29;50.33;102028.94;5011179;28;45384;-65
2023/05/18 01:27:24;;;;;;;;;4.50;4.50;;;;;14.23;50.33;102023.34;5010630;28;45322;-65
2023/05/18 01:29:50;;;;;;;;;4.67;4.00;;;;;14.11;50.37;102007.75;5011035;28;45639;-65
2023/05/18 01:32:20;;;;;;;;;7.00;5.00;;;;;14.14;50.54;102016.81;5011674;28;45307;-65
2023/05/18 01:34:46;;;;;;;;;6.00;5.00;;;;;14.11;50.57;102019.41;5011904;28;44995;-67
2023/05/18 01:37:11;;;;;;;;;6.00;3.33;;;;;14.01;51.16;102006.53;5008659;28;45164;-66
2023/05/18 01:39:37;;;;;;;;;6.00;4.50;;;;;14.00;50.69;102019.03;5011398;28;46090;-66
2023/05/18 01:42:10;;;;;;;;;5.67;3.67;;;;;14.01;51.41;102017.28;5010542;28;45094;-66
2023/05/18 01:44:42;;;;;;;;;6.50;4.75;;;;;14.00;50.67;102016.34;4998008;28;45094;-66
2023/05/18 01:47:13;;;;;;;;;3.67;3.67;;;;;13.96;51.17;102019.81;5011052;28;45280;-65
2023/05/18 01:49:59;;;;;;;;;3.67;3.67;;;;;13.99;50.82;102018.97;5011876;28;45153;-65
2023/05/18 01:52:45;;;;;;;;;8.50;5.00;;;;;13.98;51.58;102023.44;5008431;28;45077;-65
2023/05/18 01:55:13;;;;;;;;;7.50;7.00;;;;;13.91;51.20;102023.19;5005782;28;45059;-64
2023/05/18 01:57:43;;;;;;;;;8.50;6.25;;;;;13.82;51.48;102022.03;5011952;28;44986;-63
2023/05/18 02:00:09;;;;;;;;;6.33;5.33;;;;;13.75;51.92;102014.63;5011406;28;45156;-67
2023/05/18 02:02:35;;;;;;;;;8.50;5.50;;;;;13.76;51.79;102019.16;5010651;28;45285;-66
2023/05/18 02:05:01;;;;;;;;;8.00;5.00;;;;;13.76;51.69;102019.16;5011215;28;45199;-66
2023/05/18 02:07:26;;;;;;;;;5.25;4.50;;;;;13.76;51.74;102020.91;5009883;28;45208;-64
2023/05/18 02:09:52;;;;;;;;;6.75;6.75;;;;;13.74;51.83;102014.56;5010872;28;45156;-65
2023/05/18 02:12:17;;;;;;;;;6.00;4.75;;;;;13.71;51.57;102020.78;5010830;28;45241;-63
2023/05/18 02:14:42;;;;;;;;;7.75;5.00;;;;;13.70;51.54;102012.66;5010623;28;45267;-67
2023/05/18 02:17:08;;;;;;;;;6.25;6.25;;;;;13.69;51.44;102010.81;5020454;28;45161;-66
2023/05/18 02:19:36;;;;;;;;;8.25;6.00;;;;;13.67;52.02;102008.09;5015254;28;45352;-64
2023/05/18 02:22:05;;;;;;;;;8.75;7.50;;;;;13.63;52.11;102006.16;5011347;28;44945;-66
2023/05/18 02:24:31;;;;;;;;;7.25;5.00;;;;;13.71;51.34;102015.41;5010844;28;45133;-66
2023/05/18 02:26:57;;;;;;;;;6.25;4.75;;;;;13.68;51.45;102017.97;5009920;28;45132;-66
2023/05/18 02:29:22;;;;;;;;;9.25;6.25;;;;;13.73;51.43;102012.78;5009168;28;45348;-67
2023/05/18 02:31:48;;;;;;;;;10.00;7.75;;;;;13.77;51.74;102025.44;5008926;28;45210;-65
2023/05/18 02:34:14;;;;;;;;;10.75;5.00;;;;;13.58;51.75;102005.09;5009159;28;50103;-66
2023/05/18 02:36:41;;;;;;;;;7.00;7.00;;;;;13.74;51.69;102034.31;5011049;28;45731;-67
2023/05/18 02:39:10;;;;;;;;;7.50;7.00;;;;;13.75;51.42;102029.84;5009330;28;46037;-66
2023/05/18 02:41:35;;;;;;;;;8.50;5.25;;;;;13.70;51.66;102037.75;4993821;28;45043;-64
2023/05/18 02:44:05;;;;;;;;;10.75;7.25;;;;;13.66;51.76;102042.94;5010682;28;45498;-65
2023/05/18 02:46:31;;;;;;;;;8.50;5.00;;;;;13.62;52.00;102037.47;5009852;28;45188;-65
2023/05/18 02:48:57;;;;;;;;;5.00;5.00;;;;;13.61;51.77;102032.03;5010016;28;45939;-63
2023/05/18 02:51:23;;;;;;;;;6.75;5.50;;;;;13.64;52.16;102037.53;5009253;28;45121;-66
2023/05/18 02:53:50;;;;;;;;;5.00;5.00;;;;;13.61;51.79;102029.34;4983707;28;45138;-65
2023/05/18 02:56:16;;;;;;;;;5.50;4.25;;;;;13.64;52.56;102032.16;5011174;28;45211;-63
2023/05/18 02:58:42;;;;;;;;;4.75;4.50;;;;;13.61;51.99;102027.59;5010927;28;45164;-64
2023/05/18 03:01:08;;;;;;;;;8.00;5.50;;;;;13.58;52.16;102030.19;5010553;28;45156;-65
2023/05/18 03:03:33;;;;;;;;;7.50;6.75;;;;;13.59;51.57;102026.63;4992020;28;45384;-64
2023/05/18 03:06:04;;;;;;;;;6.00;5.25;;;;;13.57;51.94;102036.41;5010049;28;45118;-65
2023/05/18 03:08:30;;;;;;;;;11.00;8.00;;;;;13.55;52.64;102031.84;5007636;28;45581;-65
2023/05/18 03:10:56;;;;;;;;;10.00;9.00;;;;;13.51;52.22;102027.22;5009052;28;45078;-64
2023/05/18 03:13:21;;;;;;;;;8.50;7.50;;;;;13.52;52.51;102032.63;5010032;28;45149;-66
2023/05/18 03:15:48;;;;;;;;;14.75;9.25;;;;;13.43;52.78;102022.50;5011987;28;45024;-65
2023/05/18 03:18:13;;;;;;;;;10.75;6.00;;;;;13.48;52.59;102029.78;5013839;28;45341;-66
2023/05/18 03:20:39;;;;;;;;;8.75;8.50;;;;;13.46;52.88;102029.72;5012481;28;45091;-64
2023/05/18 03:23:05;;;;;;;;;8.75;7.25;;;;;13.43;52.08;102019.81;5013426;28;45216;-65
2023/05/18 03:25:31;;;;;;;;;9.50;6.75;;;;;13.42;52.61;102027.81;5012311;28;45142;-67
2023/05/18 03:27:57;;;;;;;;;9.25;7.50;;;;;13.28;52.38;102003.13;5014251;28;46032;-66
2023/05/18 03:30:23;;;;;;;;;8.50;8.00;;;;;13.36;52.10;102022.22;5012675;28;45152;-63
2023/05/18 03:32:48;;;;;;;;;8.00;5.75;;;;;13.27;52.96;102020.09;5013482;28;45589;-65
2023/05/18 03:35:14;;;;;;;;;6.75;6.00;;;;;13.25;52.31;102016.47;4995993;28;45319;-65
2023/05/18 03:37:40;;;;;;;;;14.00;10.50;;;;;13.25;52.33;102021.81;5013068;28;45244;-66
2023/05/18 03:40:13;;;;;;;;;8.25;6.75;;;;;13.24;53.28;102022.66;5011917;28;45363;-67
2023/05/18 03:42:42;;;;;;;;;9.25;8.25;;;;;13.19;52.76;102013.53;5013089;28;45143;-65
2023/05/18 03:45:09;;;;;;;;;7.50;7.50;;;;;13.18;53.39;102011.69;5013687;28;44995;-66
2023/05/18 03:47:35;;;;;;;;;9.50;7.25;;;;;13.12;53.67;102000.78;5010123;28;45680;-65
2023/05/18 03:50:01;;;;;;;;;9.00;6.75;;;;;13.21;52.93;102014.50;5012641;28;45249;-64
2023/05/18 03:52:28;;;;;;;;;7.75;7.50;;;;;13.22;52.44;102022.59;5013094;28;45204;-65
2023/05/18 03:54:54;;;;;;;;;8.75;8.75;;;;;13.19;52.68;102025.19;5005753;28;45153;-65
2023/05/18 03:57:19;;;;;;;;;10.50;8.00;;;;;13.19;52.74;102026.97;5012738;28;45998;-66
2023/05/18 03:59:45;;;;;;;;;6.00;5.50;;;;;13.14;52.99;102018.75;5013204;28;45105;-66
2023/05/18 04:02:10;;;;;;;;;11.50;7.25;;;;;13.03;53.35;102001.34;5009707;28;45243;-64
2023/05/18 04:04:40;;;;;;;;;9.75;8.00;;;;;13.13;52.56;102034.78;5013331;28;45287;-64
2023/05/18 04:07:06;;;;;;;;;9.25;7.75;;;;;13.09;52.71;102020.34;5012497;28;45739;-63
2023/05/18 04:09:32;;;;;;;;;9.75;7.50;;;;;13.09;52.87;102031.97;5011108;28;45288;-66
2023/05/18 04:11:58;;;;;;;;;13.50;13.50;;;;;13.07;52.58;102020.28;5012434;28;44959;-66
2023/05/18 04:14:23;;;;;;;;;17.00;12.00;;;;;13.11;53.03;102026.66;5011506;28;45293;-65
2023/05/18 04:16:50;;;;;;;;;10.25;9.75;;;;;13.12;53.06;102036.56;5012485;28;46051;-65
2023/05/18 04:19:17;;;;;;;;;7.00;6.75;;;;;13.06;52.56;102029.19;5010124;28;45274;-66
2023/05/18 04:21:46;;;;;;;;;8.00;8.00;;;;;13.07;53.45;102032.81;5011866;28;45211;-65
2023/05/18 04:24:13;;;;;;;;;10.00;9.50;;;;;13.01;53.09;102030.78;5011555;28;45442;-64
2023/05/18 04:26:39;;;;;;;;;11.00;9.50;;;;;13.03;53.60;102034.47;5010053;28;45487;-66
2023/05/18 04:29:06;;;;;;;;;16.25;11.50;;;;;13.04;52.67;102041.63;5010003;28;45296;-66
2023/05/18 04:31:33;;;;;;;;;10.25;9.25;;;;;13.09;53.21;102047.19;5012871;28;45077;-66
2023/05/18 04:33:59;;;;;;;;;11.50;9.00;;;;;13.05;53.21;102042.53;5012588;28;45133;-65
2023/05/18 04:36:29;;;;;;;;;10.75;9.50;;;;;12.96;53.40;102029.69;5013278;28;45319;-64
2023/05/18 04:38:57;;;;;;;;;11.25;7.50;;;;;12.95;53.55;102033.25;5012561;28;45666;-65
2023/05/18 04:41:23;;;;;;;;;6.00;6.00;;;;;13.05;53.04;102062.25;5012447;28;45162;-65
2023/05/18 04:43:49;;;;;;;;;14.25;9.00;;;;;12.99;53.30;102051.28;5008880;28;45071;-67
2023/05/18 04:46:15;;;;;;;;;16.25;10.25;;;;;12.98;53.34;102048.53;5010887;28;46735;-64
2023/05/18 04:48:41;;;;;;;;;14.50;10.00;;;;;13.03;53.16;102053.25;5008656;28;45581;-65
2023/05/18 04:51:06;;;;;;;;;11.25;10.00;;;;;12.99;53.15;102047.69;5011509;28;45270;-66
2023/05/18 04:53:37;;;;;;;;;8.75;7.00;;;;;13.00;53.45;102058.50;5012472;28;45030;-66
2023/05/18 04:56:03;;;;;;;;;14.00;8.50;;;;;12.99;52.53;102056.66;5009691;28;45352;-66
2023/05/18 04:58:29;;;;;;;;;10.00;10.00;;;;;13.00;53.25;102062.91;5010698;28;45128;-66
2023/05/18 05:00:55;;;;;;;;;11.50;10.00;;;;;12.95;53.47;102046.69;5010996;28;44897;-66
2023/05/18 05:03:21;;;;;;;;;13.75;8.50;;;;;13.02;53.21;102062.13;5011748;28;45189;-66
2023/05/18 05:05:46;;;;;;;;;11.75;10.25;;;;;13.01;53.55;102054.03;5005666;28;45749;-66
2023/05/18 05:08:11;;;;;;;;;9.25;9.00;;;;;13.01;53.35;102062.97;4993014;28;45250;-66
2023/05/18 05:10:37;;;;;;;;;12.50;10.75;;;;;13.05;53.05;102062.25;5011585;28;45407;-65
2023/05/18 05:13:03;;;;;;;;;8.00;7.75;;;;;12.49;52.98;101964.50;5012946;28;45372;-65
2023/05/18 05:15:29;;;;;;;;;10.00;10.00;;;;;13.03;53.12;102053.25;5010979;28;45167;-66
2023/05/18 05:17:54;;;;;;;;;9.75;9.50;;;;;13.10;52.49;102062.44;5003853;28;45543;-66
2023/05/18 05:20:20;;;;;;;;;19.25;12.50;;;;;13.12;52.36;102057.13;4999829;28;45615;-66
2023/05/18 05:22:45;;;;;;;;;10.75;9.50;;;;;13.11;52.17;102055.28;5010645;28;45200;-67
2023/05/18 05:25:11;;;;;;;;;12.00;10.25;;;;;13.11;52.43;102066.00;5000452;28;46112;-66
2023/05/18 05:27:37;;;;;;;;;16.00;10.00;;;;;13.12;52.72;102062.50;4991471;28;45826;-66
2023/05/18 05:30:03;;;;;;;;;12.50;11.50;;;;;13.13;52.49;102067.88;4992617;28;45625;-66
2023/05/18 05:32:28;;;;;;;;;11.00;9.75;;;;;13.14;53.18;102063.44;4994851;28;45460;-65
2023/05/18 05:34:54;;;;;;;;;16.75;14.00;;;;;13.16;52.92;102072.47;4994030;28;45397;-66
2023/05/18 05:37:20;;;;;;;;;10.75;9.00;;;;;13.18;52.55;102071.69;4992265;28;45498;-65
2023/05/18 05:39:48;;;;;;;;;8.50;8.50;;;;;13.21;52.39;102076.22;4976722;28;45338;-65
2023/05/18 05:42:13;;;;;;;;;13.75;13.25;;;;;13.23;51.65;102079.88;4957844;28;45688;-65
2023/05/18 05:44:39;;;;;;;;;12.50;10.75;;;;;13.23;52.40;102069.13;4994634;28;45996;-65
2023/05/18 05:47:05;;;;;;;;;14.50;9.25;;;;;13.04;52.77;102043.41;4994356;28;45546;-66
2023/05/18 05:49:31;;;;;;;;;15.00;10.75;;;;;13.24;52.62;102081.72;4993343;28;45522;-64
2023/05/18 05:51:56;;;;;;;;;17.75;11.00;;;;;13.26;52.64;102080.94;4989576;28;45439;-66
2023/05/18 05:54:22;;;;;;;;;17.25;10.00;;;;;13.26;52.45;102069.25;4971828;28;48169;-65
2023/05/18 05:56:47;;;;;;;;;10.75;8.75;;;;;13.31;51.88;102081.06;4976574;28;45507;-65
2023/05/18 05:59:12;;;;;;;;;12.25;11.75;;;;;13.33;52.20;102082.09;4994678;28;45490;-67
2023/05/18 06:01:37;;;;;;;;;15.75;12.50;;;;;13.35;52.00;102084.84;4990404;28;45483;-65
2023/05/18 06:04:05;;;;;;;;;15.25;10.75;;;;;13.39;51.08;102079.59;4991847;28;45567;-65
2023/05/18 06:06:30;;;;;;;;;16.25;13.25;;;;;13.41;51.50;102088.66;4993833;28;45358;-65
2023/05/18 06:08:56;;;;;;;;;12.25;11.00;;;;;13.45;51.92;102082.53;4991428;28;45564;-67
2023/05/18 06:11:21;;;;;;;;;11.00;10.25;;;;;13.44;51.42;102066.34;4993351;28;45321;-63
2023/05/18 06:13:47;;;;;;;;;13.00;8.25;;;;;13.59;51.10;102076.72;4993644;28;45435;-64
2023/05/18 06:16:12;;;;;;;;;13.00;11.25;;;;;13.67;51.00;102082.38;4994046;28;45377;-65
2023/05/18 06:18:38;;;;;;;;;12.50;10.75;;;;;13.76;51.16;102086.31;4994147;28;45576;-66
2023/05/18 06:21:03;;;;;;;;;16.25;13.25;;;;;13.84;50.61;102089.22;4994097;28;45501;-66
2023/05/18 06:23:28;;;;;;;;;11.50;11.50;;;;;13.91;50.66;102087.66;4993586;28;46006;-65
2023/05/18 06:25:54;;;;;;;;;10.00;8.00;;;;;13.91;50.16;102080.53;4991973;28;45396;-64
2023/05/18 06:28:20;;;;;;;;;14.25;12.25;;;;;13.99;50.14;102086.16;4993453;28;45292;-66
2023/05/18 06:30:46;;;;;;;;;14.25;11.25;;;;;13.66;49.82;102025.09;4994162;28;45247;-65
2023/05/18 06:33:12;;;;;;;;;15.00;8.00;;;;;14.01;49.87;102077.31;4993737;28;46270;-66
2023/05/18 06:35:37;;;;;;;;;18.00;15.00;;;;;14.10;50.07;102082.06;4992804;28;45376;-65
2023/05/18 06:38:03;;;;;;;;;15.00;13.50;;;;;14.09;49.99;102074.88;4990568;28;46340;-67
2023/05/18 06:40:28;;;;;;;;;13.50;12.00;;;;;14.21;49.56;102082.44;4993653;28;45448;-63
2023/05/18 06:42:54;;;;;;;;;16.25;12.75;;;;;14.22;49.90;102083.34;4992681;28;46160;-66
2023/05/18 06:45:19;;;;;;;;;17.00;11.25;;;;;14.26;49.96;102082.59;4993422;28;45638;-64
2023/05/18 06:47:45;;;;;;;;;14.25;12.00;;;;;14.27;49.21;102081.69;4993146;28;49993;-66
2023/05/18 06:50:11;;;;;;;;;13.25;11.50;;;;;14.28;49.39;102078.16;4977885;28;45423;-66
2023/05/18 06:52:36;;;;;;;;;25.00;19.50;;;;;14.44;49.35;102087.66;4996959;28;45506;-65
2023/05/18 06:55:02;;;;;;;;;14.75;11.75;;;;;14.43;48.73;102072.38;4996782;28;45481;-65
2023/05/18 06:57:28;;;;;;;;;15.50;12.00;;;;;14.62;49.61;102090.00;4990473;28;45593;-65
2023/05/18 06:59:54;;;;;;;;;15.00;10.50;;;;;14.73;48.27;102085.88;4996692;28;46091;-66
2023/05/18 07:02:20;;;;;;;;;14.00;12.00;;;;;14.76;48.38;102083.28;4996341;28;45320;-66
2023/05/18 07:04:46;;;;;;;;;17.50;15.75;;;;;14.78;47.13;102080.66;4996196;28;45387;-66
2023/05/18 07:07:12;;;;;;;;;14.25;12.00;;;;;14.87;47.20;102087.22;4996788;28;45542;-65
2023/05/18 07:09:37;;;;;;;;;12.75;12.75;;;;;14.80;47.35;102071.78;4995920;28;45562;-66
2023/05/18 07:12:03;;;;;;;;;11.50;10.50;;;;;14.96;47.68;102077.59;4995867;28;46974;-65
2023/05/18 07:14:28;;;;;;;;;15.75;14.00;;;;;15.05;47.23;102080.59;4996167;28;45409;-65
2023/05/18 07:16:54;;;;;;;;;13.33;9.00;;;;;15.13;47.00;102084.41;4996380;28;45426;-67
2023/05/18 07:19:20;;;;;;;;;10.00;7.33;;;;;14.98;46.43;102043.56;4995416;28;45719;-67
2023/05/18 07:21:45;;;;;;;;;21.25;19.75;;;;;15.21;46.88;102085.53;4993511;28;46111;-66
2023/05/18 07:24:10;;;;;;;;;18.00;15.25;;;;;15.22;45.48;102073.88;4993257;28;45450;-66
2023/05/18 07:26:35;;;;;;;;;25.75;17.00;;;;;15.28;46.69;102075.84;4994789;28;54526;-68
2023/05/18 07:29:01;;;;;;;;;11.25;10.25;;;;;15.41;46.95;102083.41;5003610;28;45671;-66
2023/05/18 07:31:26;;;;;;;;;17.50;16.50;;;;;15.53;46.50;102082.84;4991289;28;46606;-66
2023/05/18 07:33:52;;;;;;;;;14.33;10.00;;;;;15.64;45.75;102075.97;5002109;28;45835;-66
2023/05/18 07:36:17;;;;;;;;;12.00;11.33;;;;;15.73;46.14;102069.00;4995327;28;45520;-67
2023/05/18 07:38:43;;;;;;;;;14.00;13.00;;;;;15.84;45.36;102070.22;4996216;28;45849;-65
2023/05/18 07:41:08;;;;;;;;;15.25;13.50;;;;;15.95;45.14;102075.88;4996948;28;46036;-66
2023/05/18 07:43:33;;;;;;;;;12.00;10.75;;;;;16.03;44.69;102068.88;4995610;28;45774;-65
2023/05/18 07:45:59;;;;;;;;;12.67;9.67;;;;;15.73;44.44;102015.09;4977807;28;45738;-66
2023/05/18 07:48:24;;;;;;;;;11.67;11.00;;;;;16.09;44.76;102065.47;4995597;28;45364;-67
2023/05/18 07:50:50;;;;;;;;;20.25;15.25;;;;;16.17;44.95;102062.06;4994963;28;45534;-65
2023/05/18 07:53:15;;;;;;;;;11.50;10.25;;;;;16.21;43.66;102052.25;4997787;28;46106;-64
2023/05/18 07:55:41;;;;;;;;;13.33;10.67;;;;;16.25;43.32;102058.63;5002992;28;45823;-65
2023/05/18 07:58:06;;;;;;;;;12.67;8.67;;;;;16.23;43.08;102052.28;4999692;28;45665;-63
2023/05/18 08:00:32;;;;;;;;;21.50;13.25;;;;;16.27;43.23;102048.78;4996688;28;45668;-66
2023/05/18 08:02:59;;;;;;;;;18.33;12.67;;;;;16.31;43.37;102050.69;4974211;28;45498;-65
2023/05/18 08:05:25;;;;;;;;;10.00;8.67;;;;;16.41;43.33;102050.03;4991783;28;45439;-68
2023/05/18 08:07:50;;;;;;;;;12.00;8.33;;;;;16.52;43.31;102061.97;4995311;28;45470;-65
2023/05/18 08:10:16;;;;;;;;;11.67;8.67;;;;;16.60;42.94;102056.78;4994411;28;46825;-68
2023/05/18 08:12:41;;;;;;;;;16.33;11.67;;;;;16.56;42.72;102058.50;4977898;28;45441;-67
2023/05/18 08:15:07;;;;;;;;;13.33;9.00;;;;;16.57;42.82;102054.91;5008930;28;45507;-66
2023/05/18 08:17:33;;;;;;;;;20.25;17.50;;;;;16.59;42.73;102053.13;4995902;28;45443;-65
2023/05/18 08:19:58;;;;;;;;;9.33;8.33;;;;;16.70;42.55;102052.50;4992612;28;46384;-68
2023/05/18 08:22:24;;;;;;;;;12.00;11.67;;;;;16.72;42.21;102048.03;4991893;28;45321;-66
2023/05/18 08:24:49;;;;;;;;;11.00;9.33;;;;;16.67;42.60;102045.22;4993739;28;45508;-67
2023/05/18 08:27:14;;;;;;;;;9.00;8.67;;;;;16.75;42.48;102046.31;4994227;28;45366;-66
2023/05/18 08:29:40;;;;;;;;;25.50;22.25;;;;;16.82;42.37;102051.84;4992770;28;45574;-64
2023/05/18 08:32:06;;;;;;;;;20.00;10.33;;;;;16.84;41.62;102052.78;4991793;28;45558;-66
2023/05/18 08:34:32;;;;;;;;;21.75;20.25;;;;;16.85;41.39;102046.56;4991881;28;45828;-68
2023/05/18 08:36:58;;;;;;;;;14.33;9.67;;;;;16.87;41.55;102044.78;5000891;28;45569;-65
2023/05/18 08:39:24;;;;;;;;;9.33;9.33;;;;;16.89;41.01;102037.63;4994995;28;45587;-64
2023/05/18 08:41:54;;;;;;;;;24.75;19.25;;;;;16.86;40.96;102027.69;4996304;28;45673;-65
2023/05/18 08:44:24;;;;;;;;;17.67;14.33;;;;;17.01;40.67;102037.91;4994858;28;45490;-65
2023/05/18 08:46:50;;;;;;;;;16.33;10.00;;;;;17.08;40.33;102042.53;4994771;28;45541;-66
2023/05/18 08:49:17;;;;;;;;;8.33;8.33;;;;;17.15;40.16;102039.97;4994986;28;45648;-66
2023/05/18 08:51:45;;;;;;;;;16.75;16.00;;;;;17.22;39.99;102028.38;4976723;28;45442;-66
2023/05/18 08:54:18;;;;;;;;;10.67;9.67;;;;;17.28;39.46;102031.22;4994977;28;45445;-65
2023/05/18 08:56:45;;;;;;;;;15.00;9.00;;;;;17.33;39.54;102031.31;4994813;28;45519;-65
2023/05/18 08:59:13;;;;;;;;;9.00;6.67;;;;;17.37;39.17;102035.88;4976608;28;47156;-67
2023/05/18 09:01:39;;;;;;;;;11.00;9.00;;;;;17.40;39.67;102031.44;4990152;28;45736;-65
2023/05/18 09:04:05;;;;;;;;;10.00;8.00;;;;;17.48;39.39;102031.59;4994864;28;45574;-65
2023/05/18 09:06:32;;;;;;;;;10.33;10.33;;;;;17.45;38.90;102024.31;4977207;28;45590;-65
2023/05/18 09:08:58;;;;;;;;;11.00;10.00;;;;;17.52;38.51;102027.16;4994695;28;46412;-65
2023/05/18 09:11:25;;;;;;;;;19.25;16.25;;;;;17.58;38.20;102030.88;4994397;28;45281;-66
2023/05/18 09:13:50;;;;;;;;;9.00;8.00;;;;;17.68;38.41;102024.72;4994390;28;45432;-66
2023/05/18 09:16:16;;;;;;;;;5.33;5.00;;;;;17.76;38.42;102029.38;4994846;28;45317;-66
2023/05/18 09:18:42;;;;;;;;;8.67;8.67;;;;;17.79;37.98;102022.22;4994767;28;45458;-66
2023/05/18 09:21:07;;;;;;;;;18.67;13.67;;;;;17.92;38.47;102034.19;4994852;28;45535;-67
2023/05/18 09:23:34;;;;;;;;;9.00;6.33;;;;;17.96;38.17;102029.75;4994230;28;45477;-67
2023/05/18 09:25:59;;;;;;;;;12.00;9.33;;;;;18.00;38.61;102037.94;4993485;28;45574;-65
2023/05/18 09:28:27;;;;;;;;;12.00;10.33;;;;;18.04;38.56;102036.19;4973207;28;46251;-66
2023/05/18 09:30:52;;;;;;;;;19.00;11.33;;;;;18.07;38.33;102028.13;4974153;28;46104;-65
2023/05/18 09:33:22;;;;;;;;;14.67;9.67;;;;;18.08;38.49;102027.22;4994196;28;45594;-65
2023/05/18 09:35:49;;;;;;;;;12.33;10.00;;;;;18.13;38.42;102032.72;4994404;28;46084;-65
2023/05/18 09:38:20;;;;;;;;;20.00;17.75;;;;;18.11;38.42;102024.56;4993662;28;45758;-66
2023/05/18 09:40:47;;;;;;;;;17.00;14.50;;;;;18.08;38.90;102029.03;4975908;28;45550;-66
2023/05/18 09:43:13;;;;;;;;;7.67;5.00;;;;;18.09;38.60;102030.88;4994043;28;45364;-65
2023/05/18 09:45:43;;;;;;;;;12.00;8.67;;;;;18.04;38.92;102033.50;4993990;28;45387;-65
2023/05/18 09:48:09;;;;;;;;;11.33;10.00;;;;;18.04;39.17;102033.50;4993556;28;45660;-65
2023/05/18 09:50:36;;;;;;;;;13.67;10.33;;;;;18.02;36.23;102025.34;4993525;28;45409;-65
2023/05/18 09:53:05;;;;;;;;;15.33;11.33;;;;;17.72;37.63;101977.06;4994214;28;45408;-65
2023/05/18 09:55:31;;;;;;;;;14.00;9.00;;;;;18.03;38.39;102031.66;4993970;28;45462;-65
2023/05/18 09:57:56;;;;;;;;;17.67;14.00;;;;;17.97;38.39;102026.16;4993758;28;45415;-65
2023/05/18 10:00:22;;;;;;;;;25.75;21.75;;;;;17.96;38.59;102027.94;4993728;28;45646;-66
2023/05/18 10:02:51;;;;;;;;;17.00;15.67;;;;;17.94;38.47;102004.50;4993928;28;45501;-65
2023/05/18 10:05:21;;;;;;;;;12.00;9.00;;;;;18.13;37.79;102017.41;4993454;28;45356;-65
2023/05/18 10:07:47;;;;;;;;;12.00;10.00;;;;;18.23;37.53;102019.38;4993182;28;45429;-66
2023/05/18 10:10:17;;;;;;;;;16.33;12.67;;;;;18.30;37.00;102020.38;4993794;28;45280;-67
2023/05/18 10:12:43;;;;;;;;;17.67;13.33;;;;;18.38;36.72;102020.50;4994308;28;45603;-66
2023/05/18 10:15:09;;;;;;;;;16.00;12.67;;;;;18.45;36.68;102008.88;4994075;28;45533;-65
2023/05/18 10:17:37;;;;;;;;;13.33;9.00;;;;;18.53;35.73;102012.59;4993322;28;46972;-65
2023/05/18 10:20:07;;;;;;;;;10.67;8.33;;;;;18.60;34.62;102006.34;4993199;28;45511;-65
2023/05/18 10:22:35;;;;;;;;;13.67;12.00;;;;;18.71;34.21;102000.16;4993129;28;45466;-65
2023/05/18 10:25:03;;;;;;;;;17.00;13.33;;;;;18.81;33.63;101999.41;4975541;28;45349;-68
2023/05/18 10:27:29;;;;;;;;;11.33;9.33;;;;;18.85;32.21;102006.72;4993302;28;45925;-65
2023/05/18 10:29:57;;;;;;;;;12.00;10.00;;;;;18.79;32.23;101993.03;4996903;28;45277;-66
2023/05/18 10:32:24;;;;;;;;;14.67;12.33;;;;;18.88;32.33;102000.44;4996408;28;45403;-65
2023/05/18 10:34:55;;;;;;;;;12.67;10.33;;;;;18.81;32.47;101977.75;4996164;28;45369;-66
2023/05/18 10:37:22;;;;;;;;;12.67;12.00;;;;;18.92;31.86;101996.84;4995450;28;45495;-64
2023/05/18 10:39:50;;;;;;;;;14.33;11.33;;;;;18.99;31.78;102005.97;4994398;28;45483;-67
2023/05/18 10:42:17;;;;;;;;;13.67;10.33;;;;;19.01;31.62;101999.69;4986669;28;45471;-67
2023/05/18 10:44:44;;;;;;;;;9.33;8.33;;;;;18.98;31.79;101998.75;4990454;28;45427;-65
2023/05/18 10:47:10;;;;;;;;;21.00;16.50;;;;;18.98;31.77;101998.75;4996552;28;47293;-66
2023/05/18 10:49:36;;;;;;;;;12.00;10.67;;;;;18.92;31.73;101992.38;4996718;28;45280;-66
2023/05/18 10:52:02;;;;;;;;;9.33;9.33;;;;;18.98;31.77;101994.22;4996947;28;45505;-66
2023/05/18 10:54:29;;;;;;;;;16.00;11.67;;;;;18.99;31.45;101992.41;4997001;28;45321;-66
2023/05/18 10:56:55;;;;;;;;;18.00;13.67;;;;;18.98;31.38;101990.63;4978729;28;46311;-65
2023/05/18 10:59:24;;;;;;;;;15.00;8.67;;;;;18.98;30.94;101988.81;4978926;28;45599;-66
2023/05/18 11:01:52;;;;;;;;;9.33;8.00;;;;;18.99;31.14;101973.47;4996464;28;45837;-66
2023/05/18 11:04:28;;;;;;;;;15.67;10.33;;;;;18.84;30.68;101969.72;4996511;28;45427;-66
2023/05/18 11:07:01;;;;;;;;;14.33;7.33;;;;;18.88;31.58;101978.75;4978478;28;48577;-66
2023/05/18 11:09:28;;;;;;;;;6.33;6.33;;;;;18.87;30.99;101975.13;4975005;28;45527;-68
2023/05/18 11:11:56;;;;;;;;;5.67;5.67;;;;;18.86;31.01;101984.16;4988911;28;45470;-66
2023/05/18 11:14:30;;;;;;;;;11.00;9.33;;;;;18.85;30.98;101987.75;4996361;28;45443;-66